Terminal Aerodrome Forecast
Issued by NWS Upton, NY

Current Version | Previous Version | Text Only | Print | Product List | Glossary On
Versions: 1 2 3 4 5 6 7 8 9 10 11 12 13 14 15 16 17 18 19 20 21 22 23 24 25 26
000 FTUS41 KOKX 300600 RRA TAFBDR TAF KBDR 300605Z 3006/3106 17004KT P6SM SCT250 FM301200 15007KT P6SM SCT025 SCT250 FM301600 16010KT P6SM SCT035 SCT150 SCT250 FM310000 20008KT P6SM FEW025 BKN250=

USA.gov is the U.S. government's official web portal to all federal, state and local government web resources and services.